Time;durP1;ratioP1;P1;durP2;ratioP2;P2;SDS_P1;SDS_P2;PMS_P1;PMS_P2;Temp;Humidity;BMP_temperature;BMP_pressure;BME280_temperature;BME280_humidity;BME280_pressure;Samples;Min_cycle;Max_cycle;Signal;HPM_P1;HPM_P2
2021/05/05 00:00:40;;;;;;;3.00;1.40;;;10.10;99.90;;;;;;5037549;28;20444;-55
2021/05/05 00:03:06;;;;;;;2.43;1.70;;;10.10;99.90;;;;;;5037803;28;20459;-57
2021/05/05 00:05:33;;;;;;;3.50;1.90;;;10.10;99.90;;;;;;5037766;28;20766;-57
2021/05/05 00:08:00;;;;;;;2.27;1.50;;;10.10;99.90;;;;;;5037295;28;20487;-56
2021/05/05 00:10:28;;;;;;;6.70;1.30;;;10.00;99.90;;;;;;5037908;28;20451;-58
2021/05/05 00:12:54;;;;;;;1.80;1.40;;;10.00;99.90;;;;;;5037514;28;20780;-56
2021/05/05 00:15:23;;;;;;;1.43;1.17;;;10.00;99.90;;;;;;5037635;28;20788;-56
2021/05/05 00:17:49;;;;;;;1.93;1.30;;;10.00;99.90;;;;;;5040110;28;20487;-56
2021/05/05 00:20:16;;;;;;;4.63;1.30;;;9.90;99.90;;;;;;5041198;28;20743;-57
2021/05/05 00:22:43;;;;;;;2.33;1.20;;;9.90;99.90;;;;;;5041637;28;20451;-57
2021/05/05 00:25:10;;;;;;;3.00;1.93;;;9.90;99.90;;;;;;5041893;28;20796;-54
2021/05/05 00:27:36;;;;;;;1.63;1.10;;;9.90;99.90;;;;;;5041645;28;20962;-57
2021/05/05 00:30:05;;;;;;;1.87;1.30;;;9.90;99.90;;;;;;5041790;28;20439;-57
2021/05/05 00:32:32;;;;;;;2.63;1.40;;;9.90;99.90;;;;;;5041721;28;20463;-57
2021/05/05 00:34:58;;;;;;;1.80;1.00;;;9.80;99.90;;;;;;5041616;28;20448;-55
2021/05/05 00:37:26;;;;;;;1.73;1.20;;;9.70;99.90;;;;;;5041665;28;20455;-57
2021/05/05 00:39:53;;;;;;;2.53;1.33;;;9.70;99.90;;;;;;5041730;28;20788;-57
2021/05/05 00:42:20;;;;;;;4.13;1.60;;;9.70;99.90;;;;;;5042045;28;20464;-53
2021/05/05 00:44:46;;;;;;;5.63;1.63;;;9.60;99.90;;;;;;5041896;28;20510;-54
2021/05/05 00:47:12;;;;;;;1.53;1.13;;;9.50;99.90;;;;;;5041163;28;20954;-51
2021/05/05 00:49:39;;;;;;;2.83;1.40;;;9.50;99.90;;;;;;5041325;28;20464;-50
2021/05/05 00:52:06;;;;;;;5.03;1.30;;;9.50;99.90;;;;;;5041710;28;20447;-53
2021/05/05 00:54:32;;;;;;;3.93;1.30;;;9.50;99.90;;;;;;5042151;28;20455;-53
2021/05/05 00:56:59;;;;;;;2.27;1.10;;;9.50;99.90;;;;;;5041555;28;20486;-54
2021/05/05 00:59:26;;;;;;;4.47;1.63;;;9.50;99.90;;;;;;5040800;28;20475;-55
2021/05/05 01:01:52;;;;;;;4.17;1.43;;;9.60;99.90;;;;;;5041603;28;20444;-51
2021/05/05 01:04:20;;;;;;;1.77;1.20;;;9.50;99.90;;;;;;5041923;28;20772;-52
2021/05/05 01:06:47;;;;;;;4.70;1.43;;;9.60;99.90;;;;;;5041345;28;20455;-57
2021/05/05 01:09:13;;;;;;;3.00;1.53;;;9.50;99.90;;;;;;5041764;28;20467;-54
2021/05/05 01:11:40;;;;;;;2.30;1.33;;;9.50;99.90;;;;;;5041279;28;20451;-54
2021/05/05 01:14:06;;;;;;;4.40;1.70;;;9.50;99.90;;;;;;5041592;28;20514;-56
2021/05/05 01:16:33;;;;;;;2.27;1.33;;;9.50;99.90;;;;;;5040877;28;20456;-56
2021/05/05 01:18:59;;;;;;;4.80;1.33;;;9.50;99.90;;;;;;5040515;28;20475;-55
2021/05/05 01:21:26;;;;;;;3.07;1.57;;;9.50;99.90;;;;;;5040569;28;20456;-57
2021/05/05 01:23:52;;;;;;;1.40;1.13;;;9.60;99.90;;;;;;5040951;28;20820;-54
2021/05/05 01:26:19;;;;;;;2.70;1.40;;;9.60;99.90;;;;;;5040783;28;20526;-56
2021/05/05 01:28:45;;;;;;;4.50;1.87;;;9.50;99.90;;;;;;5039364;28;20451;-56
2021/05/05 01:31:14;;;;;;;2.83;1.33;;;9.50;99.90;;;;;;5041465;28;20514;-57
2021/05/05 01:33:41;;;;;;;1.70;1.27;;;9.40;99.90;;;;;;5040589;28;20464;-56
2021/05/05 01:36:09;;;;;;;3.90;1.50;;;9.40;99.90;;;;;;5040763;28;20444;-57
2021/05/05 01:38:37;;;;;;;2.60;1.40;;;9.30;99.90;;;;;;5040785;28;20510;-55
2021/05/05 01:41:04;;;;;;;5.10;1.77;;;9.30;99.90;;;;;;5040941;28;20464;-57
2021/05/05 01:43:30;;;;;;;3.10;1.43;;;9.30;99.90;;;;;;5040509;28;20776;-56
2021/05/05 01:45:57;;;;;;;3.20;1.40;;;9.30;99.90;;;;;;5040592;28;20447;-52
2021/05/05 01:48:23;;;;;;;2.60;1.57;;;9.30;99.90;;;;;;5039729;28;20479;-55
2021/05/05 01:50:52;;;;;;;2.40;1.43;;;9.30;99.90;;;;;;5040821;28;20448;-56
2021/05/05 01:53:19;;;;;;;3.67;1.37;;;9.30;99.90;;;;;;5040660;28;20451;-56
2021/05/05 01:55:46;;;;;;;3.20;1.47;;;9.20;99.90;;;;;;5040882;28;20452;-56
2021/05/05 01:58:13;;;;;;;2.30;1.63;;;9.30;99.90;;;;;;5040484;28;20480;-57
2021/05/05 02:00:43;;;;;;;4.30;1.33;;;9.30;99.90;;;;;;5040317;28;20444;-57
2021/05/05 02:03:11;;;;;;;2.97;1.23;;;9.30;99.90;;;;;;5040139;28;20765;-58
2021/05/05 02:05:38;;;;;;;4.30;2.20;;;9.30;99.90;;;;;;5040049;28;20453;-55
2021/05/05 02:08:05;;;;;;;2.07;1.60;;;9.30;99.90;;;;;;5041310;28;20448;-57
2021/05/05 02:10:31;;;;;;;2.60;1.40;;;9.40;99.90;;;;;;5040415;28;20448;-54
2021/05/05 02:12:58;;;;;;;6.47;1.80;;;9.40;99.90;;;;;;5040269;28;20824;-56
2021/05/05 02:15:25;;;;;;;2.30;1.77;;;9.50;99.90;;;;;;5039621;28;20455;-56
2021/05/05 02:17:52;;;;;;;2.10;1.37;;;9.50;99.90;;;;;;5038895;28;20892;-52
2021/05/05 02:20:21;;;;;;;8.20;1.83;;;9.50;99.90;;;;;;5038627;28;20451;-53
2021/05/05 02:22:48;;;;;;;5.20;1.53;;;9.40;99.90;;;;;;5039067;28;20459;-51
2021/05/05 02:25:15;;;;;;;3.60;1.33;;;9.40;99.90;;;;;;5039999;28;20456;-54
2021/05/05 02:27:42;;;;;;;4.10;1.80;;;9.30;99.90;;;;;;5040186;28;20480;-52
2021/05/05 02:30:11;;;;;;;6.73;2.27;;;9.30;99.90;;;;;;5040655;28;20476;-51
2021/05/05 02:32:40;;;;;;;5.00;1.40;;;9.20;99.90;;;;;;5039889;28;20443;-53
2021/05/05 02:35:08;;;;;;;4.47;1.60;;;9.20;99.90;;;;;;5040429;28;20479;-53
2021/05/05 02:37:35;;;;;;;2.90;1.53;;;9.30;99.90;;;;;;5040061;28;20448;-55
2021/05/05 02:40:02;;;;;;;5.27;1.80;;;9.20;99.90;;;;;;5039737;28;20467;-57
2021/05/05 02:42:28;;;;;;;2.50;1.30;;;9.20;99.90;;;;;;5039598;28;20439;-55
2021/05/05 02:44:54;;;;;;;2.93;1.43;;;9.20;99.90;;;;;;5039784;28;20444;-57
2021/05/05 02:47:22;;;;;;;8.60;2.13;;;9.20;99.90;;;;;;5039453;28;20444;-53
2021/05/05 02:49:49;;;;;;;3.43;1.57;;;9.20;99.90;;;;;;5039443;28;20892;-57
2021/05/05 02:52:16;;;;;;;3.67;1.83;;;9.20;99.90;;;;;;5040087;28;20459;-56
2021/05/05 02:54:42;;;;;;;2.80;1.80;;;9.10;99.90;;;;;;5040059;28;20471;-55
2021/05/05 02:57:08;;;;;;;7.17;1.80;;;9.10;99.90;;;;;;5039708;28;20468;-58
2021/05/05 02:59:35;;;;;;;2.37;1.50;;;9.10;99.90;;;;;;5040246;28;20491;-54
2021/05/05 03:02:01;;;;;;;5.40;1.60;;;9.10;99.90;;;;;;5040547;28;20432;-54
2021/05/05 03:04:28;;;;;;;4.03;1.30;;;9.00;99.90;;;;;;5039589;28;20440;-54
2021/05/05 03:06:55;;;;;;;5.83;1.73;;;9.00;99.90;;;;;;5039093;28;20920;-54
2021/05/05 03:09:24;;;;;;;3.87;2.00;;;9.00;99.90;;;;;;5039523;28;20444;-56
2021/05/05 03:11:50;;;;;;;3.57;2.23;;;9.00;99.90;;;;;;5040593;28;20445;-57
2021/05/05 03:14:17;;;;;;;3.07;1.90;;;9.00;99.90;;;;;;5039461;28;20452;-56
2021/05/05 03:16:43;;;;;;;4.80;2.17;;;8.90;99.90;;;;;;5039864;28;20444;-55
2021/05/05 03:19:09;;;;;;;1.70;1.23;;;8.90;99.90;;;;;;5039714;28;20480;-56
2021/05/05 03:21:38;;;;;;;2.90;2.17;;;8.90;99.90;;;;;;5039588;28;20436;-58
2021/05/05 03:24:05;;;;;;;5.10;1.63;;;8.90;99.90;;;;;;5039449;28;20551;-55
2021/05/05 03:26:31;;;;;;;4.93;1.70;;;8.80;99.90;;;;;;5039415;28;20451;-60
2021/05/05 03:28:58;;;;;;;1.63;1.50;;;8.80;99.90;;;;;;5039235;28;20455;-56
2021/05/05 03:31:24;;;;;;;5.00;1.80;;;8.80;99.90;;;;;;5039390;28;20464;-54
2021/05/05 03:33:50;;;;;;;3.83;2.73;;;8.70;99.90;;;;;;5039491;28;20780;-57
2021/05/05 03:36:16;;;;;;;3.20;1.80;;;8.80;99.90;;;;;;5039033;28;20479;-58
2021/05/05 03:38:44;;;;;;;3.00;1.70;;;8.70;99.90;;;;;;5039116;28;20479;-55
2021/05/05 03:41:10;;;;;;;2.63;2.20;;;8.80;99.90;;;;;;5039467;28;20502;-57
2021/05/05 03:43:36;;;;;;;3.80;1.90;;;8.80;99.90;;;;;;5039624;28;20459;-54
2021/05/05 03:46:03;;;;;;;6.50;1.73;;;8.80;99.90;;;;;;5039506;28;20513;-57
2021/05/05 03:48:29;;;;;;;4.67;2.00;;;8.80;99.90;;;;;;5039215;28;20978;-56
2021/05/05 03:50:57;;;;;;;4.10;2.03;;;8.80;99.90;;;;;;5039448;28;20454;-57
2021/05/05 03:53:24;;;;;;;2.93;1.63;;;8.80;99.90;;;;;;5039007;28;20522;-56
2021/05/05 03:55:51;;;;;;;5.17;2.03;;;8.80;99.90;;;;;;5039232;28;20440;-54
2021/05/05 03:58:17;;;;;;;4.60;1.40;;;8.90;99.90;;;;;;5039643;28;20482;-56
2021/05/05 04:00:43;;;;;;;1.77;1.40;;;8.90;99.90;;;;;;5039252;28;20437;-50
2021/05/05 04:03:09;;;;;;;2.00;1.50;;;9.00;99.90;;;;;;5039004;28;20472;-56
2021/05/05 04:05:36;;;;;;;7.90;2.53;;;9.00;99.90;;;;;;5039787;28;20445;-55
2021/05/05 04:08:02;;;;;;;2.53;2.03;;;9.10;99.90;;;;;;5039392;28;20509;-57
2021/05/05 04:10:28;;;;;;;5.33;1.80;;;9.10;99.90;;;;;;5038474;28;20467;-53
2021/05/05 04:12:55;;;;;;;4.53;1.90;;;9.10;99.90;;;;;;5038517;28;20464;-56
2021/05/05 04:15:21;;;;;;;3.97;1.63;;;9.10;99.90;;;;;;5038482;28;20445;-55
2021/05/05 04:17:48;;;;;;;6.33;2.60;;;9.10;99.90;;;;;;5038950;28;20467;-55
2021/05/05 04:20:17;;;;;;;2.53;1.70;;;9.10;99.90;;;;;;5038484;28;20433;-52
2021/05/05 04:22:43;;;;;;;3.93;1.90;;;9.10;99.90;;;;;;5039040;28;20435;-55
2021/05/05 04:25:10;;;;;;;4.10;1.60;;;9.20;99.90;;;;;;5038384;28;20935;-53
2021/05/05 04:27:38;;;;;;;4.40;2.07;;;9.20;99.90;;;;;;5038798;28;20801;-55
2021/05/05 04:30:06;;;;;;;4.93;1.83;;;9.20;99.90;;;;;;5038266;28;20581;-55
2021/05/05 04:32:33;;;;;;;2.87;1.87;;;9.20;99.90;;;;;;5038371;28;20471;-58
2021/05/05 04:34:59;;;;;;;3.60;2.07;;;9.20;99.90;;;;;;5039149;28;20888;-56
2021/05/05 04:37:26;;;;;;;3.40;1.70;;;9.20;99.90;;;;;;5038782;28;20820;-56
2021/05/05 04:39:52;;;;;;;2.30;1.87;;;9.20;99.90;;;;;;5039811;28;20567;-58
2021/05/05 04:42:18;;;;;;;4.40;1.67;;;9.20;99.90;;;;;;5039385;28;20428;-57
2021/05/05 04:44:45;;;;;;;3.70;1.40;;;9.30;99.90;;;;;;5038425;28;20456;-55
2021/05/05 04:47:11;;;;;;;5.00;1.53;;;9.30;99.90;;;;;;5038578;28;20955;-57
2021/05/05 04:49:38;;;;;;;4.17;1.97;;;9.40;99.90;;;;;;5038659;28;20421;-57
2021/05/05 04:52:04;;;;;;;2.30;1.33;;;9.40;99.90;;;;;;5038844;28;20444;-58
2021/05/05 04:54:31;;;;;;;6.23;2.00;;;9.40;99.90;;;;;;5038878;28;20452;-57
2021/05/05 04:56:57;;;;;;;6.00;1.70;;;9.50;99.90;;;;;;5038791;28;20515;-57
2021/05/05 04:59:24;;;;;;;3.90;2.70;;;9.50;99.90;;;;;;5039100;28;20542;-55
2021/05/05 05:01:50;;;;;;;3.93;1.57;;;9.50;99.90;;;;;;5037777;28;20491;-56
2021/05/05 05:04:17;;;;;;;3.60;1.57;;;9.50;99.90;;;;;;5041034;28;20509;-57
2021/05/05 05:06:43;;;;;;;6.03;1.93;;;9.50;99.90;;;;;;5041616;28;20452;-57
2021/05/05 05:09:09;;;;;;;2.33;1.47;;;9.50;99.90;;;;;;5041983;28;20451;-58
2021/05/05 05:11:36;;;;;;;5.73;2.33;;;9.50;99.90;;;;;;5042097;28;20847;-58
2021/05/05 05:14:02;;;;;;;3.47;1.50;;;9.60;99.90;;;;;;5060021;28;20436;-57
2021/05/05 05:16:28;;;;;;;3.60;1.63;;;9.60;99.90;;;;;;5052021;28;20443;-55
2021/05/05 05:18:54;;;;;;;5.80;1.67;;;9.60;99.90;;;;;;5053264;28;20490;-54
2021/05/05 05:21:23;;;;;;;5.73;2.70;;;9.70;99.90;;;;;;5042794;28;20444;-57
2021/05/05 05:23:49;;;;;;;5.77;2.93;;;9.80;99.90;;;;;;5040063;28;20467;-58
2021/05/05 05:26:15;;;;;;;4.70;2.20;;;9.90;99.90;;;;;;5039493;28;20470;-53
2021/05/05 05:28:42;;;;;;;5.77;2.10;;;9.90;99.90;;;;;;5039210;28;20440;-55
2021/05/05 05:31:08;;;;;;;4.17;1.67;;;9.90;99.90;;;;;;5039630;28;20444;-55
2021/05/05 05:33:34;;;;;;;3.30;1.43;;;9.90;99.90;;;;;;5039561;28;20440;-53
2021/05/05 05:36:00;;;;;;;2.57;1.40;;;10.00;99.90;;;;;;5038984;28;20455;-52
2021/05/05 05:38:27;;;;;;;6.93;1.93;;;10.10;99.90;;;;;;5038813;28;20487;-54
2021/05/05 05:40:53;;;;;;;2.87;1.90;;;10.10;99.90;;;;;;5038918;28;20518;-57
2021/05/05 05:43:19;;;;;;;4.47;1.67;;;10.20;99.90;;;;;;5039394;28;20463;-54
2021/05/05 05:45:46;;;;;;;2.30;1.63;;;10.20;99.90;;;;;;5039104;28;20975;-58
2021/05/05 05:48:12;;;;;;;2.27;1.80;;;10.10;99.90;;;;;;5039128;28;20809;-57
2021/05/05 05:50:39;;;;;;;3.03;1.70;;;10.00;99.90;;;;;;5039148;28;20448;-54
2021/05/05 05:53:05;;;;;;;2.50;1.37;;;9.90;99.90;;;;;;5038992;28;20502;-55
2021/05/05 05:55:34;;;;;;;3.50;1.73;;;9.80;99.90;;;;;;5038934;28;20448;-57
2021/05/05 05:58:00;;;;;;;6.87;2.00;;;9.80;99.90;;;;;;5039320;28;20789;-55
2021/05/05 06:00:27;;;;;;;2.50;1.60;;;9.80;99.90;;;;;;5042047;28;20530;-53
2021/05/05 06:02:53;;;;;;;3.80;1.70;;;9.80;99.90;;;;;;5059105;28;20526;-54
2021/05/05 06:05:19;;;;;;;2.80;1.80;;;9.80;99.90;;;;;;5059000;28;20476;-55
2021/05/05 06:07:45;;;;;;;2.93;2.00;;;9.90;99.90;;;;;;5058830;28;20524;-59
2021/05/05 06:10:12;;;;;;;3.97;2.30;;;10.00;99.90;;;;;;5057322;28;21105;-56
2021/05/05 06:12:40;;;;;;;4.63;2.20;;;10.20;99.90;;;;;;5056846;28;20470;-58
2021/05/05 06:15:08;;;;;;;2.77;2.03;;;10.40;99.90;;;;;;5057347;28;20515;-56
2021/05/05 06:17:34;;;;;;;7.27;2.20;;;10.40;99.90;;;;;;5058111;28;20473;-56
2021/05/05 06:20:00;;;;;;;5.07;2.57;;;10.40;99.90;;;;;;5057944;28;20545;-58
2021/05/05 06:22:26;;;;;;;3.73;1.73;;;10.40;99.90;;;;;;5055270;28;20457;-53
2021/05/05 06:24:53;;;;;;;3.00;2.40;;;10.30;99.90;;;;;;5058302;28;20462;-55
2021/05/05 06:27:22;;;;;;;6.40;2.60;;;10.30;99.90;;;;;;5058253;28;20455;-58
2021/05/05 06:29:49;;;;;;;3.57;2.10;;;10.40;99.90;;;;;;5058457;28;20439;-56
2021/05/05 06:32:16;;;;;;;3.20;1.93;;;10.40;99.90;;;;;;5053903;28;20941;-57
2021/05/05 06:34:42;;;;;;;1.80;1.53;;;10.40;99.90;;;;;;5039846;28;20500;-57
2021/05/05 06:37:09;;;;;;;1.63;1.23;;;10.30;99.90;;;;;;5046808;28;20526;-55
2021/05/05 06:39:35;;;;;;;4.67;2.23;;;10.40;99.90;;;;;;5038425;28;20480;-56
2021/05/05 06:42:02;;;;;;;1.97;1.43;;;10.50;99.90;;;;;;5049743;28;20528;-57
2021/05/05 06:44:28;;;;;;;2.47;1.70;;;10.60;99.90;;;;;;5042497;28;20451;-54
2021/05/05 06:46:55;;;;;;;2.47;2.00;;;10.70;99.90;;;;;;5048053;28;20428;-54
2021/05/05 06:49:23;;;;;;;3.90;2.47;;;10.80;99.90;;;;;;5044366;28;20466;-54
2021/05/05 06:51:50;;;;;;;1.80;1.50;;;10.80;99.90;;;;;;5042687;28;20437;-58
2021/05/05 06:54:17;;;;;;;5.40;1.80;;;10.90;99.90;;;;;;5037060;28;20504;-54
2021/05/05 06:56:43;;;;;;;4.87;1.97;;;11.10;99.90;;;;;;5038732;28;20440;-57
2021/05/05 06:59:10;;;;;;;2.80;1.90;;;11.20;99.90;;;;;;5045652;28;20490;-57
2021/05/05 07:01:37;;;;;;;2.50;2.20;;;11.20;99.90;;;;;;5050824;28;20820;-55
2021/05/05 07:04:06;;;;;;;4.10;1.67;;;11.00;99.90;;;;;;5036585;28;20901;-59
2021/05/05 07:06:33;;;;;;;3.00;2.07;;;10.90;99.90;;;;;;5035313;28;20956;-59
2021/05/05 07:09:00;;;;;;;1.77;1.50;;;10.80;99.90;;;;;;5037664;28;20455;-53
2021/05/05 07:11:29;;;;;;;4.37;2.10;;;10.70;99.90;;;;;;5040657;28;20543;-59
2021/05/05 07:13:55;;;;;;;3.53;1.90;;;10.60;99.90;;;;;;5038847;28;20523;-60
2021/05/05 07:16:22;;;;;;;4.03;2.80;;;10.60;99.90;;;;;;5038463;28;20521;-58
2021/05/05 07:18:49;;;;;;;3.37;2.30;;;10.50;99.90;;;;;;5040861;28;20487;-58
2021/05/05 07:21:16;;;;;;;7.67;2.53;;;10.50;99.90;;;;;;5044855;28;20535;-58
2021/05/05 07:23:43;;;;;;;4.40;2.80;;;10.50;99.90;;;;;;5040663;28;20757;-56
2021/05/05 07:26:10;;;;;;;2.80;2.47;;;10.50;99.90;;;;;;5039819;28;20551;-59
2021/05/05 07:28:37;;;;;;;3.63;1.80;;;10.50;99.90;;;;;;5039917;28;20445;-56
2021/05/05 07:31:04;;;;;;;4.17;2.03;;;10.50;99.90;;;;;;5039850;28;20456;-58
2021/05/05 07:33:30;;;;;;;5.87;2.57;;;10.50;99.90;;;;;;5041499;28;20492;-55
2021/05/05 07:35:58;;;;;;;11.63;2.10;;;10.70;99.90;;;;;;5050724;28;20459;-54
2021/05/05 07:38:47;;;;;;;5.53;2.17;;;11.00;99.90;;;;;;5048209;28;20498;-55
2021/05/05 07:46:58;;;;;;;2.53;2.10;;;12.10;99.90;;;;;;5018410;28;20426;-57
2021/05/05 07:49:25;;;;;;;3.10;2.70;;;12.20;99.90;;;;;;5018709;28;20484;-53
2021/05/05 07:51:53;;;;;;;4.30;2.60;;;11.90;99.90;;;;;;5018680;28;20501;-58
2021/05/05 07:54:22;;;;;;;3.50;1.67;;;11.80;99.90;;;;;;5018610;28;20468;-54
2021/05/05 07:56:49;;;;;;;4.17;2.70;;;11.80;99.90;;;;;;5017390;28;20930;-55
2021/05/05 07:59:16;;;;;;;2.13;1.90;;;11.80;99.90;;;;;;5016825;28;20473;-57
2021/05/05 08:01:43;;;;;;;3.77;2.57;;;12.00;99.90;;;;;;5016538;28;20536;-53
2021/05/05 08:04:09;;;;;;;6.00;2.53;;;12.00;99.90;;;;;;5016137;28;20487;-56
2021/05/05 08:06:36;;;;;;;2.17;1.90;;;11.90;99.90;;;;;;5016609;28;20449;-54
2021/05/05 08:09:04;;;;;;;2.40;2.13;;;11.70;99.90;;;;;;5016675;28;20505;-49
2021/05/05 08:11:31;;;;;;;5.90;2.53;;;11.60;99.90;;;;;;5016817;28;20457;-55
2021/05/05 08:13:58;;;;;;;4.23;2.43;;;11.60;99.90;;;;;;5016204;28;20496;-56
2021/05/05 08:16:24;;;;;;;2.53;2.00;;;11.60;99.90;;;;;;5017485;28;20454;-54
2021/05/05 08:18:51;;;;;;;2.50;2.30;;;12.30;99.90;;;;;;5018125;28;20485;-51
2021/05/05 08:21:18;;;;;;;4.60;2.07;;;13.60;99.90;;;;;;5015758;28;20449;-55
2021/05/05 08:23:45;;;;;;;2.00;1.67;;;14.30;99.90;;;;;;5016520;28;20465;-59
2021/05/05 08:26:12;;;;;;;2.23;2.00;;;14.70;99.80;;;;;;5016169;28;20453;-57
2021/05/05 08:28:39;;;;;;;2.10;1.90;;;14.70;97.90;;;;;;5016361;28;20441;-52
2021/05/05 08:31:07;;;;;;;1.80;1.60;;;15.20;96.00;;;;;;5016125;28;20449;-56
2021/05/05 08:33:34;;;;;;;1.87;1.70;;;14.90;95.60;;;;;;5015260;28;20445;-52
2021/05/05 08:36:01;;;;;;;3.20;2.13;;;14.40;95.50;;;;;;5015577;28;20453;-56
2021/05/05 08:38:27;;;;;;;2.43;1.80;;;13.70;96.70;;;;;;5017196;28;20484;-52
2021/05/05 08:40:54;;;;;;;3.20;2.00;;;13.40;98.60;;;;;;5019455;28;20818;-55
2021/05/05 08:43:20;;;;;;;3.00;2.13;;;13.90;98.70;;;;;;5019131;28;20448;-56
2021/05/05 08:45:49;;;;;;;3.80;2.87;;;14.90;97.40;;;;;;5019058;28;20783;-54
2021/05/05 08:48:19;;;;;;;3.00;2.37;;;15.20;96.00;;;;;;5018398;28;20473;-56
2021/05/05 08:50:45;;;;;;;3.00;2.10;;;16.00;94.50;;;;;;5018248;28;20452;-55
2021/05/05 08:53:12;;;;;;;3.77;2.03;;;15.90;93.60;;;;;;5018660;28;20540;-57
2021/05/05 08:55:39;;;;;;;2.63;2.10;;;15.20;94.20;;;;;;5018495;28;20795;-56
2021/05/05 08:58:06;;;;;;;3.53;2.10;;;14.30;98.10;;;;;;5020161;28;20518;-56
2021/05/05 09:00:35;;;;;;;2.30;2.10;;;13.40;99.90;;;;;;5021041;28;20491;-46
2021/05/05 09:03:05;;;;;;;2.50;1.83;;;12.70;99.90;;;;;;5021369;28;20532;-46
2021/05/05 09:05:47;;;;;;;3.13;2.00;;;12.30;99.90;;;;;;5019591;28;20918;-47
2021/05/05 09:08:14;;;;;;;2.07;1.60;;;13.20;99.90;;;;;;5018414;28;20504;-45
2021/05/05 09:10:56;;;;;;;1.83;1.47;;;14.60;99.90;;;;;;5017814;28;20507;-47
2021/05/05 09:13:50;;;;;;;3.27;1.30;;;16.00;99.30;;;;;;5017321;28;20547;-45
2021/05/05 09:16:18;;;;;;;3.53;1.80;;;17.10;93.20;;;;;;5017506;28;20879;-50
2021/05/05 09:19:03;;;;;;;5.80;3.57;;;17.20;87.00;;;;;;5016954;28;20481;-53
2021/05/05 09:21:32;;;;;;;3.43;2.03;;;16.40;85.90;;;;;;5017195;28;20771;-50
2021/05/05 09:24:25;;;;;;;2.73;1.30;;;15.40;86.00;;;;;;5017756;28;20456;-48
2021/05/05 09:26:53;;;;;;;1.77;1.20;;;14.90;86.80;;;;;;5011466;28;20547;-52
2021/05/05 09:29:21;;;;;;;1.20;1.07;;;15.30;84.90;;;;;;5017602;28;20441;-51
2021/05/05 09:31:48;;;;;;;5.97;1.60;;;16.10;85.70;;;;;;5017356;28;20471;-51
2021/05/05 09:34:15;;;;;;;1.30;1.20;;;15.90;79.10;;;;;;5017036;28;20440;-50
2021/05/05 09:36:57;;;;;;;1.73;1.20;;;16.10;79.40;;;;;;5017298;28;20475;-48
2021/05/05 09:39:29;;;;;;;2.03;1.53;;;16.10;78.20;;;;;;5016818;28;20584;-52
2021/05/05 09:41:56;;;;;;;2.00;1.60;;;15.40;77.30;;;;;;5017248;28;21118;-52
2021/05/05 09:44:23;;;;;;;4.17;1.40;;;14.60;80.50;;;;;;5016998;28;20437;-50
2021/05/05 09:46:51;;;;;;;2.00;1.30;;;15.20;79.90;;;;;;5016909;28;20464;-50
2021/05/05 09:49:25;;;;;;;3.10;1.37;;;15.60;80.40;;;;;;5015793;28;20485;-50
2021/05/05 09:51:55;;;;;;;3.23;2.10;;;15.70;77.80;;;;;;5016876;28;20464;-48
2021/05/05 09:54:23;;;;;;;3.20;1.80;;;15.10;78.70;;;;;;5017157;28;20748;-47
2021/05/05 09:56:50;;;;;;;2.80;1.50;;;14.40;79.90;;;;;;5017296;28;20469;-49
2021/05/05 09:59:16;;;;;;;1.60;1.50;;;13.60;84.20;;;;;;5017169;28;20535;-47
2021/05/05 10:01:59;;;;;;;3.37;1.67;;;13.00;90.00;;;;;;5016924;28;20441;-49
2021/05/05 10:04:27;;;;;;;2.63;2.30;;;12.30;98.30;;;;;;5018407;28;20460;-45
2021/05/05 10:07:00;;;;;;;2.87;1.70;;;11.50;99.90;;;;;;5018620;28;20453;-48
2021/05/05 10:09:27;;;;;;;2.10;1.57;;;10.80;99.90;;;;;;5018368;28;20472;-46
2021/05/05 10:11:54;;;;;;;3.97;2.00;;;10.20;99.90;;;;;;5018761;28;20460;-47
2021/05/05 10:14:22;;;;;;;2.50;1.67;;;10.00;99.90;;;;;;5018373;28;20937;-48
2021/05/05 10:16:52;;;;;;;1.90;1.73;;;10.60;99.90;;;;;;5017743;28;20437;-46
2021/05/05 10:19:21;;;;;;;2.97;1.50;;;11.70;99.90;;;;;;5016978;28;20491;-50
2021/05/05 10:21:52;;;;;;;2.83;2.50;;;13.00;99.90;;;;;;5016645;28;20948;-51
2021/05/05 10:24:21;;;;;;;4.93;1.90;;;14.30;99.90;;;;;;5016044;28;20456;-50
2021/05/05 10:26:47;;;;;;;3.23;2.50;;;15.00;99.90;;;;;;5017204;28;20517;-50
2021/05/05 10:29:15;;;;;;;3.70;2.23;;;15.80;99.90;;;;;;5017204;28;20952;-48
2021/05/05 10:31:42;;;;;;;2.07;1.87;;;16.50;99.90;;;;;;5017293;28;20507;-47
2021/05/05 10:34:19;;;;;;;2.70;2.00;;;17.00;99.90;;;;;;5017312;28;20475;-49
2021/05/05 10:36:51;;;;;;;2.23;1.70;;;16.60;99.10;;;;;;5017266;28;20468;-50
2021/05/05 10:39:39;;;;;;;1.90;1.80;;;15.60;99.60;;;;;;5017584;28;20473;-46
2021/05/05 10:42:14;;;;;;;2.60;2.17;;;14.80;99.90;;;;;;5018091;28;20433;-50
2021/05/05 10:44:49;;;;;;;7.60;2.10;;;14.20;99.90;;;;;;5018080;28;20477;-47
2021/05/05 10:47:18;;;;;;;2.27;1.70;;;13.80;99.90;;;;;;5017864;28;20467;-49
2021/05/05 10:50:16;;;;;;;2.53;1.70;;;13.60;99.90;;;;;;5017991;28;20448;-51
2021/05/05 10:53:03;;;;;;;1.90;1.20;;;13.70;99.90;;;;;;5017689;28;20449;-49
2021/05/05 10:55:44;;;;;;;2.13;1.30;;;14.20;98.80;;;;;;5017567;28;20448;-50
2021/05/05 10:58:13;;;;;;;2.57;1.30;;;14.50;98.10;;;;;;5017239;28;20956;-47
2021/05/05 11:00:52;;;;;;;3.33;1.37;;;14.80;95.50;;;;;;5017277;28;20491;-49
2021/05/05 11:04:03;;;;;;;2.20;1.90;;;14.90;94.00;;;;;;5018478;28;20448;-49
2021/05/05 11:06:47;;;;;;;2.43;1.27;;;14.80;92.10;;;;;;5017306;28;20526;-54
2021/05/05 11:09:45;;;;;;;2.83;1.60;;;15.10;92.90;;;;;;5015755;28;20472;-47
2021/05/05 11:12:45;;;;;;;1.20;1.10;;;14.70;92.10;;;;;;5012448;28;20476;-50
2021/05/05 11:15:13;;;;;;;3.63;1.37;;;14.10;92.90;;;;;;5018328;28;20468;-49
2021/05/05 11:17:41;;;;;;;3.03;1.37;;;13.80;93.20;;;;;;5021035;28;20799;-53
2021/05/05 11:20:09;;;;;;;4.00;1.30;;;13.60;93.50;;;;;;5020633;28;20876;-55
2021/05/05 11:22:46;;;;;;;2.90;1.13;;;13.50;94.20;;;;;;5020157;28;20512;-58
2021/05/05 11:25:35;;;;;;;1.80;1.03;;;13.30;92.90;;;;;;5021372;28;20502;-57
2021/05/05 11:28:01;;;;;;;4.73;1.17;;;13.30;93.80;;;;;;5016329;28;20457;-55
2021/05/05 11:30:39;;;;;;;1.27;0.90;;;13.70;93.20;;;;;;5020459;28;20464;-54
2021/05/05 11:33:06;;;;;;;2.40;0.90;;;13.60;90.30;;;;;;5020278;28;20501;-58
2021/05/05 11:35:33;;;;;;;2.00;1.03;;;13.50;90.90;;;;;;5021097;28;20457;-58
2021/05/05 11:38:25;;;;;;;2.80;1.20;;;13.20;89.20;;;;;;5025364;28;20439;-55
2021/05/05 11:41:01;;;;;;;1.40;1.10;;;13.10;89.60;;;;;;5061317;28;20439;-58
2021/05/05 11:43:29;;;;;;;1.20;1.00;;;13.00;89.50;;;;;;5061586;28;20454;-58
2021/05/05 11:45:58;;;;;;;1.30;0.83;;;13.10;89.40;;;;;;5059361;28;20474;-55
2021/05/05 11:48:33;;;;;;;1.20;1.10;;;13.20;87.70;;;;;;5060876;28;20478;-58
2021/05/05 11:51:00;;;;;;;1.87;1.17;;;13.30;89.30;;;;;;5061609;28;20520;-55
2021/05/05 11:53:35;;;;;;;1.30;0.80;;;13.20;84.80;;;;;;5061773;28;20497;-55
2021/05/05 11:56:14;;;;;;;4.30;1.10;;;13.30;84.80;;;;;;5061165;28;20446;-55
2021/05/05 11:58:41;;;;;;;2.70;1.23;;;13.50;86.30;;;;;;5056137;28;20609;-58
2021/05/05 12:01:07;;;;;;;1.43;0.80;;;13.70;85.90;;;;;;5057067;28;20455;-57
2021/05/05 12:03:37;;;;;;;3.37;1.20;;;13.70;84.70;;;;;;5056989;28;20521;-54
2021/05/05 12:06:04;;;;;;;4.30;0.90;;;13.60;80.40;;;;;;5058553;28;20435;-48
2021/05/05 12:08:31;;;;;;;3.63;1.27;;;13.40;78.30;;;;;;5057309;28;20459;-57
2021/05/05 12:10:59;;;;;;;1.47;0.90;;;13.10;78.40;;;;;;5055417;28;20455;-57
2021/05/05 12:13:28;;;;;;;1.10;0.70;;;13.10;79.60;;;;;;5056961;28;20439;-52
2021/05/05 12:16:03;;;;;;;1.27;0.83;;;13.30;80.40;;;;;;5057719;28;20796;-51
2021/05/05 12:18:33;;;;;;;1.47;0.90;;;13.60;79.60;;;;;;5057370;28;20443;-53
2021/05/05 12:21:08;;;;;;;4.17;1.33;;;13.90;78.10;;;;;;5058150;28;20451;-59
2021/05/05 12:23:36;;;;;;;2.90;1.07;;;14.00;77.80;;;;;;5057649;28;20455;-61
2021/05/05 12:26:16;;;;;;;4.20;1.50;;;14.10;77.70;;;;;;5057813;28;20459;-61
2021/05/05 12:28:45;;;;;;;1.77;0.97;;;14.10;77.60;;;;;;5057263;28;20795;-55
2021/05/05 12:31:13;;;;;;;4.50;2.20;;;14.10;77.50;;;;;;5059050;28;20474;-58
2021/05/05 12:33:42;;;;;;;2.90;1.20;;;13.70;78.10;;;;;;5057609;28;20463;-56
2021/05/05 12:36:11;;;;;;;3.87;1.70;;;13.50;80.00;;;;;;5057104;28;20466;-53
2021/05/05 12:38:39;;;;;;;3.93;1.50;;;13.50;79.30;;;;;;5057163;28;20825;-58
2021/05/05 12:41:14;;;;;;;6.40;1.20;;;13.50;79.80;;;;;;5057214;28;20470;-55
2021/05/05 12:43:45;;;;;;;2.50;1.33;;;13.50;78.30;;;;;;5056412;28;20512;-55
2021/05/05 12:46:21;;;;;;;2.10;1.60;;;13.40;77.40;;;;;;5056764;28;20454;-59
2021/05/05 12:48:48;;;;;;;3.30;1.20;;;13.40;78.30;;;;;;5056991;28;20870;-56
2021/05/05 12:51:19;;;;;;;2.90;1.50;;;13.40;78.20;;;;;;5054875;28;20870;-57
2021/05/05 12:53:58;;;;;;;2.23;1.30;;;13.40;79.80;;;;;;5054614;28;20451;-58
2021/05/05 12:56:39;;;;;;;2.40;1.30;;;13.50;80.00;;;;;;5054581;28;20447;-55
2021/05/05 12:59:06;;;;;;;3.63;1.17;;;13.60;81.50;;;;;;5054577;28;20486;-55
2021/05/05 13:01:33;;;;;;;2.07;1.30;;;13.60;80.00;;;;;;5058061;28;20505;-49
2021/05/05 13:04:00;;;;;;;6.20;1.27;;;13.50;81.00;;;;;;5072626;28;20431;-54